createdAt,value
2018-01-19T00:02:28.692Z,2.80
2018-01-19T00:04:59.341Z,2.80
2018-01-19T00:07:30.700Z,2.70
2018-01-19T00:10:00.550Z,2.70
2018-01-19T00:12:30.402Z,2.80
2018-01-19T00:15:00.299Z,2.90
2018-01-19T00:17:30.932Z,2.80
2018-01-19T00:20:00.832Z,2.80
2018-01-19T00:22:42.736Z,2.80
2018-01-19T00:25:12.583Z,2.90
2018-01-19T00:27:43.348Z,2.80
2018-01-19T00:30:13.289Z,2.80
2018-01-19T00:32:43.200Z,2.80
2018-01-19T00:35:13.125Z,2.80
2018-01-19T00:37:42.659Z,2.90
2018-01-19T00:40:12.603Z,2.80
2018-01-19T00:42:42.890Z,2.80
2018-01-19T00:45:13.591Z,2.80
2018-01-19T00:47:43.482Z,2.70
2018-01-19T00:50:13.533Z,2.80
2018-01-19T00:52:43.440Z,2.80
2018-01-19T00:55:13.340Z,2.80
2018-01-19T00:57:43.967Z,2.80
2018-01-19T01:00:14.800Z,2.80
2018-01-19T01:02:44.407Z,2.80
2018-01-19T01:05:15.012Z,2.70
2018-01-19T01:07:45.004Z,2.70
2018-01-19T01:10:14.832Z,2.80
2018-01-19T01:12:45.443Z,2.70
2018-01-19T01:15:14.937Z,2.70
2018-01-19T01:17:44.822Z,2.70
2018-01-19T01:20:15.435Z,2.80
2018-01-19T01:22:45.331Z,2.80
2018-01-19T01:25:15.156Z,2.70
2018-01-19T01:27:45.036Z,2.80
2018-01-19T01:30:14.892Z,2.80
2018-01-19T01:32:44.782Z,2.80
2018-01-19T01:35:14.602Z,2.80
2018-01-19T01:37:44.482Z,2.80
2018-01-19T01:40:14.323Z,2.80
2018-01-19T01:45:42.307Z,2.90
2018-01-19T01:48:12.179Z,2.90
2018-01-19T01:50:42.805Z,2.90
2018-01-19T01:53:13.437Z,2.80
2018-01-19T01:55:44.016Z,2.90
2018-01-19T01:58:13.955Z,2.80
2018-01-19T02:00:43.495Z,2.90
2018-01-19T02:03:14.119Z,2.90
2018-01-19T02:05:43.936Z,2.90
2018-01-19T02:08:14.587Z,2.90
2018-01-19T02:10:44.405Z,2.90
2018-01-19T02:13:14.279Z,3.00
2018-01-19T02:15:44.123Z,2.90
2018-01-19T02:18:14.353Z,2.90
2018-01-19T02:20:44.231Z,2.90
2018-01-19T02:23:14.074Z,2.90
2018-01-19T02:25:44.720Z,2.90
2018-01-19T02:28:14.557Z,2.90
2018-01-19T02:30:44.432Z,2.90
2018-01-19T02:33:15.011Z,3.00
2018-01-19T02:35:44.868Z,2.90
2018-01-19T02:38:15.475Z,3.00
2018-01-19T02:40:45.296Z,3.00
2018-01-19T02:43:15.939Z,3.00
2018-01-19T02:45:46.531Z,3.00
2018-01-19T02:48:16.371Z,3.00
2018-01-19T02:50:46.188Z,3.00
2018-01-19T02:53:16.075Z,3.00
2018-01-19T02:55:45.933Z,3.10
2018-01-19T02:58:16.569Z,3.10
2018-01-19T03:00:47.187Z,3.10
2018-01-19T03:03:16.991Z,3.00
2018-01-19T03:05:46.827Z,3.00
2018-01-19T03:08:17.427Z,3.10
2018-01-19T03:10:47.325Z,3.10
2018-01-19T03:13:17.171Z,3.10
2018-01-19T03:15:46.993Z,3.00
2018-01-19T03:18:17.571Z,3.00
2018-01-19T03:20:47.414Z,3.00
2018-01-19T03:23:17.255Z,3.00
2018-01-19T03:25:47.827Z,3.00
2018-01-19T03:28:17.682Z,3.00
2018-01-19T03:30:47.520Z,3.00
2018-01-19T03:33:17.414Z,3.00
2018-01-19T03:35:47.246Z,3.00
2018-01-19T03:38:17.203Z,3.10
2018-01-19T03:40:47.036Z,3.10
2018-01-19T03:43:16.895Z,3.10
2018-01-19T03:45:46.703Z,3.10
2018-01-19T03:48:17.296Z,3.20
2018-01-19T03:50:47.147Z,3.20
2018-01-19T03:53:17.754Z,3.10
2018-01-19T03:55:47.555Z,3.10
2018-01-19T03:58:17.435Z,3.10
2018-01-19T04:00:47.289Z,3.10
2018-01-19T04:03:17.112Z,3.10
2018-01-19T04:05:46.942Z,3.10
2018-01-19T04:08:17.563Z,3.10
2018-01-19T04:10:48.138Z,3.10
2018-01-19T04:13:17.973Z,3.10
2018-01-19T04:15:48.567Z,3.00
2018-01-19T04:18:18.412Z,3.00
2018-01-19T04:20:48.287Z,3.10
2018-01-19T04:23:18.103Z,3.10
2018-01-19T04:25:47.934Z,3.10
2018-01-19T04:28:17.740Z,3.20
2018-01-19T04:30:47.591Z,3.10
2018-01-19T04:33:17.455Z,3.10
2018-01-19T04:35:47.261Z,3.00
2018-01-19T04:38:18.006Z,3.10
2018-01-19T04:40:47.663Z,3.10
2018-01-19T04:43:17.479Z,3.10
2018-01-19T04:45:48.090Z,3.00
2018-01-19T04:48:17.407Z,3.00
2018-01-19T04:50:47.258Z,3.00
2018-01-19T04:53:17.834Z,3.10
2018-01-19T04:55:47.667Z,3.10
2018-01-19T04:58:17.519Z,3.10
2018-01-19T05:00:48.147Z,3.10
2018-01-19T05:03:18.760Z,3.10
2018-01-19T05:05:48.610Z,3.00
2018-01-19T05:08:18.489Z,3.10
2018-01-19T05:10:49.264Z,3.10
2018-01-19T05:13:19.336Z,3.10
2018-01-19T05:15:49.170Z,3.10
2018-01-19T05:18:19.782Z,3.00
2018-01-19T05:20:49.651Z,3.00
2018-01-19T05:23:19.522Z,3.00
2018-01-19T05:25:49.353Z,3.00
2018-01-19T05:28:19.989Z,3.00
2018-01-19T05:30:49.797Z,3.00
2018-01-19T05:33:20.416Z,3.00
2018-01-19T05:35:51.067Z,3.00
2018-01-19T05:38:20.876Z,3.00
2018-01-19T05:40:51.502Z,3.00
2018-01-19T05:43:22.104Z,3.10
2018-01-19T05:45:51.943Z,3.00
2018-01-19T05:48:22.574Z,3.00
2018-01-19T05:50:53.187Z,3.00
2018-01-19T05:53:23.148Z,3.00
2018-01-19T05:55:53.020Z,2.90
2018-01-19T05:58:22.687Z,3.00
2018-01-19T06:00:52.641Z,3.00
2018-01-19T06:03:23.249Z,3.00
2018-01-19T06:05:53.221Z,3.00
2018-01-19T06:08:23.053Z,3.10
2018-01-19T06:10:52.923Z,3.00
2018-01-19T06:13:23.019Z,3.10
2018-01-19T06:15:53.067Z,3.00
2018-01-19T06:18:22.975Z,3.00
2018-01-19T06:20:52.814Z,3.00
2018-01-19T06:23:23.375Z,3.10
2018-01-19T06:25:53.264Z,3.00
2018-01-19T06:28:23.197Z,3.00
2018-01-19T06:30:53.067Z,3.00
2018-01-19T06:33:22.888Z,3.10
2018-01-19T06:35:52.784Z,3.10
2018-01-19T06:38:22.627Z,3.20
2018-01-19T06:40:53.259Z,3.20
2018-01-19T06:43:23.840Z,3.10
2018-01-19T06:45:53.720Z,3.10
2018-01-19T06:48:23.563Z,3.10
2018-01-19T06:50:53.493Z,3.10
2018-01-19T06:53:23.324Z,3.20
2018-01-19T06:55:53.215Z,3.10
2018-01-19T06:58:23.071Z,3.10
2018-01-19T07:00:53.695Z,3.10
2018-01-19T07:03:23.551Z,3.10
2018-01-19T07:05:53.492Z,3.10
2018-01-19T07:08:23.412Z,3.10
2018-01-19T07:10:53.282Z,3.10
2018-01-19T07:13:23.202Z,3.10
2018-01-19T07:15:53.425Z,3.00
2018-01-19T07:18:23.301Z,3.00
2018-01-19T07:20:53.190Z,2.90
2018-01-19T07:23:23.100Z,2.90
2018-01-19T07:25:52.911Z,3.00
2018-01-19T07:28:22.793Z,3.00
2018-01-19T07:30:53.483Z,3.00
2018-01-19T07:33:23.595Z,3.00
2018-01-19T07:35:53.540Z,3.00
2018-01-19T07:38:24.182Z,2.90
2018-01-19T07:40:53.836Z,2.90
2018-01-19T07:43:23.650Z,3.00
2018-01-19T07:45:53.314Z,3.00
2018-01-19T07:48:23.164Z,3.00
2018-01-19T07:50:53.065Z,3.00
2018-01-19T07:53:22.931Z,3.00
2018-01-19T07:55:52.735Z,3.00
2018-01-19T07:58:22.647Z,3.00
2018-01-19T08:00:52.476Z,3.00
2018-01-19T08:03:22.330Z,3.00
2018-01-19T08:05:52.179Z,3.00
2018-01-19T08:08:22.061Z,3.10
2018-01-19T08:10:51.884Z,3.10
2018-01-19T08:13:21.723Z,3.20
2018-01-19T08:15:51.556Z,3.20
2018-01-19T08:18:21.451Z,3.30
2018-01-19T08:20:51.311Z,3.20
2018-01-19T08:23:21.195Z,3.20
2018-01-19T08:25:51.035Z,3.40
2018-01-19T08:28:20.908Z,3.40
2018-01-19T08:30:50.777Z,3.30
2018-01-19T08:33:20.618Z,3.40
2018-01-19T08:35:50.568Z,3.40
2018-01-19T08:38:20.415Z,3.40
2018-01-19T08:40:51.231Z,3.50
2018-01-19T08:43:21.852Z,3.50
2018-01-19T08:45:51.717Z,3.50
2018-01-19T08:48:21.567Z,3.50
2018-01-19T08:50:51.443Z,3.50
2018-01-19T08:53:21.283Z,3.40
2018-01-19T08:55:51.176Z,3.30
2018-01-19T08:58:21.027Z,3.30
2018-01-19T09:00:50.912Z,3.30
2018-01-19T09:03:20.783Z,3.30
2018-01-19T09:05:50.615Z,3.40
2018-01-19T09:08:21.229Z,3.40
2018-01-19T09:10:51.035Z,3.40
2018-01-19T09:13:20.894Z,3.40
2018-01-19T09:15:50.756Z,3.40
2018-01-19T09:18:20.623Z,3.50
2018-01-19T09:20:50.468Z,3.60
2018-01-19T09:23:20.410Z,3.60
2018-01-19T09:25:50.255Z,3.60
2018-01-19T09:28:20.190Z,3.60
2018-01-19T09:30:51.871Z,3.60
2018-01-19T09:33:22.028Z,3.60
2018-01-19T09:35:52.649Z,3.70
2018-01-19T09:38:22.560Z,3.70
2018-01-19T09:40:52.422Z,3.80
2018-01-19T09:43:23.059Z,3.80
2018-01-19T09:45:52.943Z,3.70
2018-01-19T09:48:24.307Z,3.70
2018-01-19T09:50:54.968Z,3.70
2018-01-19T09:53:24.883Z,3.70
2018-01-19T09:55:54.768Z,3.70
2018-01-19T09:58:25.363Z,3.90
2018-01-19T10:00:55.257Z,3.90
2018-01-19T10:03:25.087Z,4.00
2018-01-19T10:05:55.067Z,4.00
2018-01-19T10:08:24.880Z,4.00
2018-01-19T10:10:54.724Z,4.00
2018-01-19T10:13:24.547Z,4.00
2018-01-19T10:15:54.801Z,4.00
2018-01-19T10:18:24.646Z,4.10
2018-01-19T10:20:54.516Z,4.10
2018-01-19T10:23:24.343Z,4.10
2018-01-19T10:25:54.963Z,4.10
2018-01-19T10:28:24.824Z,4.10
2018-01-19T10:30:54.744Z,4.10
2018-01-19T10:33:24.759Z,4.10
2018-01-19T10:35:54.603Z,4.20
2018-01-19T10:38:24.492Z,4.20
2018-01-19T10:40:54.331Z,4.00
2018-01-19T10:43:24.208Z,4.00
2018-01-19T10:45:54.056Z,4.00
2018-01-19T10:48:23.881Z,4.00
2018-01-19T10:50:53.792Z,3.90
2018-01-19T10:53:23.627Z,4.00
2018-01-19T10:55:53.524Z,4.00
2018-01-19T10:58:23.389Z,4.10
2018-01-19T11:00:53.988Z,4.20
2018-01-19T11:03:23.808Z,4.20
2018-01-19T11:05:53.703Z,4.20
2018-01-19T11:08:23.539Z,4.20
2018-01-19T11:10:54.192Z,4.20
2018-01-19T11:13:24.772Z,4.20
2018-01-19T11:15:54.640Z,4.20
2018-01-19T11:18:25.218Z,4.30
2018-01-19T11:20:55.104Z,4.30
2018-01-19T11:23:25.326Z,4.30
2018-01-19T11:25:55.199Z,4.30
2018-01-19T11:28:25.162Z,4.40
2018-01-19T11:30:55.131Z,4.50
2018-01-19T11:33:25.023Z,4.60
2018-01-19T11:35:54.877Z,4.60
2018-01-19T11:38:24.882Z,4.60
2018-01-19T11:40:54.875Z,4.50
2018-01-19T11:43:24.965Z,4.50
2018-01-19T11:45:55.612Z,4.40
2018-01-19T11:48:26.188Z,4.30
2018-01-19T11:50:56.041Z,4.30
2018-01-19T11:53:26.691Z,4.40
2018-01-19T11:55:57.363Z,4.50
2018-01-19T11:58:27.281Z,4.40
2018-01-19T12:00:57.347Z,4.40
2018-01-19T12:03:27.410Z,4.50
2018-01-19T12:05:58.062Z,4.60
2018-01-19T12:08:27.965Z,4.60
2018-01-19T12:10:58.791Z,4.60
2018-01-19T12:13:29.489Z,4.50
2018-01-19T12:15:59.348Z,4.50
2018-01-19T12:18:29.977Z,4.40
2018-01-19T12:21:00.595Z,4.50
2018-01-19T12:23:31.241Z,4.50
2018-01-19T12:26:01.854Z,4.40
2018-01-19T12:28:32.510Z,4.40
2018-01-19T12:31:02.407Z,4.40
2018-01-19T12:33:32.328Z,4.50
2018-01-19T12:36:02.288Z,4.50
2018-01-19T12:38:32.950Z,4.60
2018-01-19T12:41:02.836Z,4.60
2018-01-19T12:43:32.707Z,4.60
2018-01-19T12:46:02.621Z,4.60
2018-01-19T12:48:32.545Z,4.60
2018-01-19T12:51:02.420Z,4.60
2018-01-19T12:53:32.291Z,4.60
2018-01-19T12:56:02.150Z,4.60
2018-01-19T12:58:32.783Z,4.50
2018-01-19T13:01:03.385Z,4.50
2018-01-19T13:03:33.075Z,4.50
2018-01-19T13:06:02.962Z,4.40
2018-01-19T13:08:32.847Z,4.40
2018-01-19T13:11:03.570Z,4.30
2018-01-19T13:13:33.431Z,4.30
2018-01-19T13:16:03.308Z,4.40
2018-01-19T13:18:34.016Z,4.40
2018-01-19T13:21:03.913Z,4.40
2018-01-19T13:23:33.794Z,4.40
2018-01-19T13:26:03.739Z,4.50
2018-01-19T13:28:33.650Z,4.50
2018-01-19T13:31:03.528Z,4.40
2018-01-19T13:33:34.240Z,4.10
2018-01-19T13:36:03.443Z,4.20
2018-01-19T13:38:33.097Z,4.20
2018-01-19T13:41:03.145Z,4.10
2018-01-19T13:43:32.811Z,4.00
2018-01-19T13:46:02.795Z,4.10
2018-01-19T13:48:32.852Z,4.10
2018-01-19T13:51:02.733Z,4.00
2018-01-19T13:53:32.771Z,4.00
2018-01-19T13:56:02.678Z,4.10
2018-01-19T13:58:32.566Z,4.10
2018-01-19T14:01:02.459Z,4.10
2018-01-19T14:03:32.484Z,4.10
2018-01-19T14:06:02.369Z,4.10
2018-01-19T14:08:32.247Z,4.20
2018-01-19T14:11:02.162Z,4.20
2018-01-19T14:13:32.054Z,4.30
2018-01-19T14:16:01.919Z,4.30
2018-01-19T14:18:31.831Z,4.30
2018-01-19T14:21:02.459Z,4.30
2018-01-19T14:23:32.433Z,4.30
2018-01-19T14:26:02.263Z,4.40
2018-01-19T14:28:32.132Z,4.40
2018-01-19T14:31:02.759Z,4.40
2018-01-19T14:33:33.451Z,4.40
2018-01-19T14:36:03.311Z,4.40
2018-01-19T14:38:34.136Z,4.30
2018-01-19T14:41:05.763Z,4.30
2018-01-19T14:43:35.644Z,4.30
2018-01-19T14:46:07.774Z,4.40
2018-01-19T14:48:38.453Z,4.40
2018-01-19T14:51:08.410Z,4.40
2018-01-19T14:53:38.281Z,4.40
2018-01-19T14:56:08.151Z,4.40
2018-01-19T14:58:38.015Z,4.30
2018-01-19T15:01:07.915Z,4.30
2018-01-19T15:03:37.912Z,4.30
2018-01-19T15:06:07.787Z,4.30
2018-01-19T15:08:37.656Z,4.20
2018-01-19T15:11:07.520Z,4.10
2018-01-19T15:13:37.533Z,4.10
2018-01-19T15:16:08.195Z,4.20
2018-01-19T15:18:38.963Z,4.20
2018-01-19T15:21:08.880Z,4.10
2018-01-19T15:23:38.742Z,4.10
2018-01-19T15:26:08.609Z,4.10
2018-01-19T15:28:38.491Z,4.10
2018-01-19T15:31:08.328Z,4.10
2018-01-19T15:33:38.210Z,4.10
2018-01-19T15:36:08.079Z,4.10
2018-01-19T15:38:38.015Z,4.20
2018-01-19T15:41:07.903Z,4.10
2018-01-19T15:43:37.802Z,4.10
2018-01-19T15:46:07.683Z,4.10
2018-01-19T15:48:37.527Z,4.10
2018-01-19T15:51:07.394Z,4.10
2018-01-19T15:53:38.952Z,4.10
2018-01-19T15:56:08.843Z,4.20
2018-01-19T15:58:38.711Z,4.20
2018-01-19T16:01:08.621Z,4.20
2018-01-19T16:03:38.439Z,4.20
2018-01-19T16:06:08.298Z,4.20
2018-01-19T16:08:38.260Z,4.20
2018-01-19T16:11:08.919Z,4.30
2018-01-19T16:13:38.858Z,4.20
2018-01-19T16:16:08.386Z,4.30
2018-01-19T16:18:38.255Z,4.30
2018-01-19T16:21:08.114Z,4.30
2018-01-19T16:23:38.279Z,4.30
2018-01-19T16:26:08.138Z,4.30
2018-01-19T16:28:37.997Z,4.30
2018-01-19T16:31:08.641Z,4.30
2018-01-19T16:33:38.506Z,4.20
2018-01-19T16:36:08.384Z,4.20
2018-01-19T16:38:38.340Z,4.20
2018-01-19T16:41:08.186Z,4.00
2018-01-19T16:43:38.952Z,4.00
2018-01-19T16:46:09.641Z,4.10
2018-01-19T16:48:39.457Z,4.00
2018-01-19T16:51:09.343Z,4.00
2018-01-19T16:53:38.860Z,3.90
2018-01-19T16:56:08.762Z,3.80
2018-01-19T16:58:38.710Z,3.70
2018-01-19T17:01:09.588Z,3.70
2018-01-19T17:03:39.853Z,3.70
2018-01-19T17:06:09.753Z,3.60
2018-01-19T17:08:39.623Z,3.60
2018-01-19T17:11:10.273Z,3.70
2018-01-19T17:13:40.092Z,3.70
2018-01-19T17:16:09.980Z,3.70
2018-01-19T17:18:40.737Z,3.70
2018-01-19T17:21:10.657Z,3.70
2018-01-19T17:23:40.508Z,3.70
2018-01-19T17:26:10.367Z,3.70
2018-01-19T17:28:40.199Z,3.70
2018-01-19T17:31:10.044Z,3.80
2018-01-19T17:33:39.966Z,3.70
2018-01-19T17:36:10.046Z,3.70
2018-01-19T17:38:39.901Z,3.70
2018-01-19T17:41:09.788Z,3.70
2018-01-19T17:43:39.370Z,3.60
2018-01-19T17:46:09.260Z,3.60
2018-01-19T17:48:39.840Z,3.70
2018-01-19T17:51:09.721Z,3.70
2018-01-19T17:53:40.337Z,3.70
2018-01-19T17:56:10.934Z,3.60
2018-01-19T17:58:40.798Z,3.60
2018-01-19T18:01:11.411Z,3.60
2018-01-19T18:03:41.295Z,3.60
2018-01-19T18:06:11.204Z,3.50
2018-01-19T18:08:41.072Z,3.50
2018-01-19T18:11:10.990Z,3.50
2018-01-19T18:13:41.688Z,3.30
2018-01-19T18:16:12.039Z,3.30
2018-01-19T18:18:42.681Z,2.90
2018-01-19T18:21:13.478Z,2.80
2018-01-19T18:23:43.460Z,2.80
2018-01-19T18:26:13.404Z,2.60
2018-01-19T18:28:43.253Z,2.60
2018-01-19T18:31:13.884Z,2.40
2018-01-19T18:33:44.692Z,2.40
2018-01-19T18:36:15.251Z,2.40
2018-01-19T18:38:45.944Z,2.40
2018-01-19T18:41:16.976Z,2.40
2018-01-19T18:43:46.865Z,2.40
2018-01-19T18:46:16.717Z,2.40
2018-01-19T18:48:48.140Z,2.50
2018-01-19T18:51:17.987Z,2.40
2018-01-19T18:53:49.519Z,2.50
2018-01-19T18:56:19.344Z,2.50
2018-01-19T18:58:49.222Z,2.60
2018-01-19T19:01:19.832Z,2.60
2018-01-19T19:03:50.948Z,2.70
2018-01-19T19:06:20.880Z,2.70
2018-01-19T19:08:50.771Z,2.70
2018-01-19T19:11:20.654Z,2.80
2018-01-19T19:13:50.662Z,2.80
2018-01-19T19:16:20.802Z,2.80
2018-01-19T19:18:50.800Z,2.80
2018-01-19T19:21:21.311Z,2.70
2018-01-19T19:23:50.944Z,2.70
2018-01-19T19:26:21.629Z,2.80
2018-01-19T19:28:51.536Z,2.70
2018-01-19T19:31:22.328Z,2.80
2018-01-19T19:33:52.975Z,2.80
2018-01-19T19:36:22.839Z,2.80
2018-01-19T19:38:52.527Z,2.70
2018-01-19T19:41:22.400Z,2.70
2018-01-19T19:43:53.020Z,2.70
2018-01-19T19:46:23.665Z,2.70
2018-01-19T19:48:53.654Z,2.70
2018-01-19T19:51:23.536Z,2.70
2018-01-19T19:53:53.447Z,2.70
2018-01-19T19:56:23.464Z,2.70
2018-01-19T19:58:53.327Z,2.80
2018-01-19T20:01:23.352Z,2.80
2018-01-19T20:03:53.462Z,2.80
2018-01-19T20:06:23.886Z,2.80
2018-01-19T20:08:53.844Z,2.80
2018-01-19T20:11:24.880Z,2.70
2018-01-19T20:13:56.528Z,2.80
2018-01-19T20:16:29.227Z,2.80
2018-01-19T20:19:00.968Z,2.90
2018-01-19T20:21:33.750Z,2.90
2018-01-19T20:24:05.614Z,3.00
2018-01-19T20:26:35.312Z,2.90
2018-01-19T20:29:06.919Z,2.90
2018-01-19T20:31:37.218Z,2.90
2018-01-19T20:34:07.427Z,2.90
2018-01-19T20:36:37.482Z,2.90
2018-01-19T20:39:08.190Z,2.90
2018-01-19T20:41:39.043Z,2.90
2018-01-19T20:44:08.889Z,2.90
2018-01-19T20:46:44.715Z,2.90
2018-01-19T20:49:15.886Z,2.90
2018-01-19T20:51:45.763Z,2.80
2018-01-19T20:54:16.482Z,2.80
2018-01-19T20:56:47.911Z,2.90
2018-01-19T20:59:17.890Z,2.90
2018-01-19T21:01:48.525Z,2.90
2018-01-19T21:04:19.073Z,3.00
2018-01-19T21:06:49.805Z,3.00
2018-01-19T21:09:20.277Z,2.90
2018-01-19T21:11:50.501Z,2.90
2018-01-19T21:14:21.182Z,2.90
2018-01-19T21:16:51.912Z,2.90
2018-01-19T21:19:21.855Z,2.90
2018-01-19T21:21:52.570Z,2.90
2018-01-19T21:24:23.078Z,2.90
2018-01-19T21:26:53.969Z,2.90
2018-01-19T21:29:30.366Z,2.90
2018-01-19T21:32:08.974Z,2.90
2018-01-19T21:34:39.960Z,2.90
2018-01-19T21:37:09.868Z,2.90
2018-01-19T21:39:42.937Z,2.80
2018-01-19T21:42:14.929Z,2.90
2018-01-19T21:44:45.932Z,2.80
2018-01-19T21:47:18.404Z,2.90
2018-01-19T21:49:49.033Z,2.90
2018-01-19T21:52:19.614Z,2.90
2018-01-19T21:54:51.134Z,2.90
2018-01-19T21:57:21.057Z,2.80
2018-01-19T21:59:52.556Z,2.80
2018-01-19T22:02:24.448Z,2.80
2018-01-19T22:04:54.813Z,2.80
2018-01-19T22:07:27.260Z,2.80
2018-01-19T22:09:59.159Z,2.80
2018-01-19T22:12:29.779Z,2.80
2018-01-19T22:14:59.645Z,2.80
2018-01-19T22:17:29.513Z,2.80
2018-01-19T22:20:00.809Z,2.80
2018-01-19T22:22:31.683Z,2.80
2018-01-19T22:25:01.596Z,2.70
2018-01-19T22:27:31.419Z,2.70
2018-01-19T22:30:01.308Z,2.70
2018-01-19T22:32:31.202Z,2.60
2018-01-19T22:35:01.967Z,2.50
2018-01-19T22:37:31.624Z,2.50
2018-01-19T22:40:01.330Z,2.40
2018-01-19T22:42:31.948Z,2.40
2018-01-19T22:45:01.831Z,2.30
2018-01-19T22:47:32.492Z,2.30
2018-01-19T22:50:02.476Z,2.30
2018-01-19T22:52:33.264Z,2.20
2018-01-19T22:55:02.767Z,2.20
2018-01-19T22:57:32.620Z,2.20
2018-01-19T23:00:02.536Z,2.20
2018-01-19T23:02:32.925Z,2.10
2018-01-19T23:05:02.468Z,2.10
2018-01-19T23:07:33.122Z,2.10
2018-01-19T23:10:04.039Z,2.10
2018-01-19T23:12:34.398Z,2.00
2018-01-19T23:15:05.054Z,2.00
2018-01-19T23:17:34.931Z,2.00
2018-01-19T23:20:04.867Z,2.00
2018-01-19T23:22:35.699Z,2.00
2018-01-19T23:25:06.323Z,2.10
2018-01-19T23:27:36.161Z,2.00
2018-01-19T23:30:06.796Z,2.10
2018-01-19T23:32:37.427Z,2.20
2018-01-19T23:35:07.768Z,2.10
2018-01-19T23:37:38.450Z,2.20
2018-01-19T23:40:08.357Z,2.20
2018-01-19T23:42:38.228Z,2.20
2018-01-19T23:45:08.168Z,2.20
2018-01-19T23:47:37.983Z,2.30
2018-01-19T23:50:07.850Z,2.20
2018-01-19T23:52:38.473Z,2.30
2018-01-19T23:55:08.296Z,2.30
2018-01-19T23:57:38.574Z,2.30
